sensor_id;sensor_type;location;lat;lon;timestamp;pressure;altitude;pressure_sealevel;temperature
79053;BMP280;68451;49.510;6.026;2023-07-09T00:01:40;98315.09;;;21.07
79053;BMP280;68451;49.510;6.026;2023-07-09T00:04:09;98380.63;;;21.46
79053;BMP280;68451;49.510;6.026;2023-07-09T00:06:35;98306.69;;;21.00
79053;BMP280;68451;49.510;6.026;2023-07-09T00:09:01;98330.28;;;21.07
79053;BMP280;68451;49.510;6.026;2023-07-09T00:11:28;98227.69;;;20.39
79053;BMP280;68451;49.510;6.026;2023-07-09T00:13:53;98361.72;;;21.23
79053;BMP280;68451;49.510;6.026;2023-07-09T00:16:22;98377.31;;;21.30
79053;BMP280;68451;49.510;6.026;2023-07-09T00:18:48;98334.00;;;21.06
79053;BMP280;68451;49.510;6.026;2023-07-09T00:21:15;98350.88;;;21.20
79053;BMP280;68451;49.510;6.026;2023-07-09T00:23:41;98356.41;;;21.23
79053;BMP280;68451;49.510;6.026;2023-07-09T00:26:10;98352.44;;;21.21
79053;BMP280;68451;49.510;6.026;2023-07-09T00:28:36;98265.09;;;20.67
79053;BMP280;68451;49.510;6.026;2023-07-09T00:31:02;98158.53;;;19.97
79053;BMP280;68451;49.510;6.026;2023-07-09T00:33:27;98307.63;;;20.85
79053;BMP280;68451;49.510;6.026;2023-07-09T00:35:57;98200.03;;;20.11
79053;BMP280;68451;49.510;6.026;2023-07-09T00:38:23;98338.03;;;20.98
79053;BMP280;68451;49.510;6.026;2023-07-09T00:41:04;98366.06;;;21.14
79053;BMP280;68451;49.510;6.026;2023-07-09T00:43:34;98340.41;;;20.99
79053;BMP280;68451;49.510;6.026;2023-07-09T00:49:01;98361.81;;;21.13
79053;BMP280;68451;49.510;6.026;2023-07-09T00:51:30;98346.78;;;20.98
79053;BMP280;68451;49.510;6.026;2023-07-09T00:54:01;98343.09;;;20.94
79053;BMP280;68451;49.510;6.026;2023-07-09T00:56:30;98343.41;;;20.93
79053;BMP280;68451;49.510;6.026;2023-07-09T00:58:57;98349.22;;;20.95
79053;BMP280;68451;49.510;6.026;2023-07-09T01:01:26;98335.00;;;20.81
79053;BMP280;68451;49.510;6.026;2023-07-09T01:03:54;98246.59;;;20.23
79053;BMP280;68451;49.510;6.026;2023-07-09T01:06:39;98356.75;;;20.83
79053;BMP280;68451;49.510;6.026;2023-07-09T01:09:07;98335.44;;;20.59
79053;BMP280;68451;49.510;6.026;2023-07-09T01:11:33;98317.28;;;20.42
79053;BMP280;68451;49.510;6.026;2023-07-09T01:14:02;98252.06;;;19.97
79053;BMP280;68451;49.510;6.026;2023-07-09T01:16:32;98254.28;;;19.85
79053;BMP280;68451;49.510;6.026;2023-07-09T01:18:59;98334.59;;;20.30
79053;BMP280;68451;49.510;6.026;2023-07-09T01:21:26;98352.84;;;20.36
79053;BMP280;68451;49.510;6.026;2023-07-09T01:23:52;98198.66;;;19.31
79053;BMP280;68451;49.510;6.026;2023-07-09T01:26:24;98376.22;;;20.34
79053;BMP280;68451;49.510;6.026;2023-07-09T01:28:50;98347.41;;;20.13
79053;BMP280;68451;49.510;6.026;2023-07-09T01:31:16;98360.84;;;20.26
79053;BMP280;68451;49.510;6.026;2023-07-09T01:33:43;98256.31;;;19.49
79053;BMP280;68451;49.510;6.026;2023-07-09T01:36:12;98228.84;;;19.30
79053;BMP280;68451;49.510;6.026;2023-07-09T01:38:39;98191.63;;;19.01
79053;BMP280;68451;49.510;6.026;2023-07-09T01:41:06;98387.16;;;20.18
79053;BMP280;68451;49.510;6.026;2023-07-09T01:43:32;98317.13;;;19.70
79053;BMP280;68451;49.510;6.026;2023-07-09T01:45:57;98320.09;;;19.63
79053;BMP280;68451;49.510;6.026;2023-07-09T01:48:25;98351.63;;;19.59
79053;BMP280;68451;49.510;6.026;2023-07-09T01:50:52;98281.31;;;18.98
79053;BMP280;68451;49.510;6.026;2023-07-09T01:53:21;98360.13;;;19.31
79053;BMP280;68451;49.510;6.026;2023-07-09T01:55:49;98397.19;;;19.46
79053;BMP280;68451;49.510;6.026;2023-07-09T01:58:15;98291.16;;;18.82
79053;BMP280;68451;49.510;6.026;2023-07-09T02:00:42;98295.41;;;18.73
79053;BMP280;68451;49.510;6.026;2023-07-09T02:03:07;98359.09;;;19.02
79053;BMP280;68451;49.510;6.026;2023-07-09T02:05:35;98309.94;;;18.60
79053;BMP280;68451;49.510;6.026;2023-07-09T02:08:01;98183.81;;;17.70
79053;BMP280;68451;49.510;6.026;2023-07-09T02:10:27;98355.97;;;18.69
79053;BMP280;68451;49.510;6.026;2023-07-09T02:12:52;98388.78;;;18.78
79053;BMP280;68451;49.510;6.026;2023-07-09T02:15:18;98367.34;;;18.60
79053;BMP280;68451;49.510;6.026;2023-07-09T02:17:43;98340.84;;;18.34
79053;BMP280;68451;49.510;6.026;2023-07-09T02:20:10;98414.94;;;18.90
79053;BMP280;68451;49.510;6.026;2023-07-09T02:22:37;98379.78;;;18.74
79053;BMP280;68451;49.510;6.026;2023-07-09T02:25:04;98394.56;;;18.86
79053;BMP280;68451;49.510;6.026;2023-07-09T02:27:32;98238.25;;;17.96
79053;BMP280;68451;49.510;6.026;2023-07-09T02:29:58;98413.63;;;19.08
79053;BMP280;68451;49.510;6.026;2023-07-09T02:32:26;98361.78;;;18.76
79053;BMP280;68451;49.510;6.026;2023-07-09T02:34:53;98328.97;;;18.52
79053;BMP280;68451;49.510;6.026;2023-07-09T02:37:21;98423.97;;;19.09
79053;BMP280;68451;49.510;6.026;2023-07-09T02:39:47;98391.13;;;18.90
79053;BMP280;68451;49.510;6.026;2023-07-09T02:42:14;98416.03;;;19.04
79053;BMP280;68451;49.510;6.026;2023-07-09T02:44:41;98235.31;;;17.82
79053;BMP280;68451;49.510;6.026;2023-07-09T02:47:07;98402.53;;;19.01
79053;BMP280;68451;49.510;6.026;2023-07-09T02:49:33;98246.97;;;17.97
79053;BMP280;68451;49.510;6.026;2023-07-09T02:51:59;98252.50;;;17.95
79053;BMP280;68451;49.510;6.026;2023-07-09T02:54:24;98392.47;;;18.83
79053;BMP280;68451;49.510;6.026;2023-07-09T02:56:50;98419.97;;;19.02
79053;BMP280;68451;49.510;6.026;2023-07-09T02:59:15;98388.22;;;18.76
79053;BMP280;68451;49.510;6.026;2023-07-09T03:01:41;98341.09;;;18.38
79053;BMP280;68451;49.510;6.026;2023-07-09T03:04:06;98364.94;;;18.58
79053;BMP280;68451;49.510;6.026;2023-07-09T03:06:36;98377.59;;;18.51
79053;BMP280;68451;49.510;6.026;2023-07-09T03:09:03;98399.53;;;18.47
79053;BMP280;68451;49.510;6.026;2023-07-09T03:11:30;98359.28;;;18.14
79053;BMP280;68451;49.510;6.026;2023-07-09T03:13:57;98410.34;;;18.40
79053;BMP280;68451;49.510;6.026;2023-07-09T03:16:23;98432.56;;;18.44
79053;BMP280;68451;49.510;6.026;2023-07-09T03:18:49;98416.94;;;18.27
79053;BMP280;68451;49.510;6.026;2023-07-09T03:21:14;98371.63;;;17.88
79053;BMP280;68451;49.510;6.026;2023-07-09T03:23:40;98410.28;;;18.10
79053;BMP280;68451;49.510;6.026;2023-07-09T03:26:06;98352.25;;;17.68
79053;BMP280;68451;49.510;6.026;2023-07-09T03:28:32;98424.03;;;18.12
79053;BMP280;68451;49.510;6.026;2023-07-09T03:30:57;98386.94;;;17.86
79053;BMP280;68451;49.510;6.026;2023-07-09T03:33:23;98435.91;;;18.14
79053;BMP280;68451;49.510;6.026;2023-07-09T03:35:50;98415.50;;;18.00
79053;BMP280;68451;49.510;6.026;2023-07-09T03:38:15;98412.84;;;17.95
79053;BMP280;68451;49.510;6.026;2023-07-09T03:40:41;98391.66;;;17.79
79053;BMP280;68451;49.510;6.026;2023-07-09T03:43:08;98399.59;;;17.84
79053;BMP280;68451;49.510;6.026;2023-07-09T03:45:37;98436.69;;;18.10
79053;BMP280;68451;49.510;6.026;2023-07-09T03:48:04;98294.72;;;17.18
79053;BMP280;68451;49.510;6.026;2023-07-09T03:50:30;98440.94;;;18.11
79053;BMP280;68451;49.510;6.026;2023-07-09T03:52:55;98451.25;;;18.12
79053;BMP280;68451;49.510;6.026;2023-07-09T03:55:21;98424.78;;;18.02
79053;BMP280;68451;49.510;6.026;2023-07-09T03:57:47;98299.47;;;17.21
79053;BMP280;68451;49.510;6.026;2023-07-09T04:00:13;98281.47;;;17.08
79053;BMP280;68451;49.510;6.026;2023-07-09T04:02:40;98455.22;;;18.15
79053;BMP280;68451;49.510;6.026;2023-07-09T04:05:07;98437.72;;;18.04
79053;BMP280;68451;49.510;6.026;2023-07-09T04:07:34;98253.94;;;16.93
79053;BMP280;68451;49.510;6.026;2023-07-09T04:10:00;98377.38;;;17.75
79053;BMP280;68451;49.510;6.026;2023-07-09T04:12:25;98414.72;;;17.99
79053;BMP280;68451;49.510;6.026;2023-07-09T04:14:51;98384.56;;;17.90
79053;BMP280;68451;49.510;6.026;2023-07-09T04:17:16;98310.66;;;17.43
79053;BMP280;68451;49.510;6.026;2023-07-09T04:19:42;98401.81;;;18.08
79053;BMP280;68451;49.510;6.026;2023-07-09T04:22:10;98434.16;;;18.40
79053;BMP280;68451;49.510;6.026;2023-07-09T04:24:35;98430.22;;;18.48
79053;BMP280;68451;49.510;6.026;2023-07-09T04:27:01;98414.34;;;18.48
79053;BMP280;68451;49.510;6.026;2023-07-09T04:29:31;98395.06;;;18.52
79053;BMP280;68451;49.510;6.026;2023-07-09T04:32:01;98398.53;;;18.58
79053;BMP280;68451;49.510;6.026;2023-07-09T04:34:27;98408.59;;;18.71
79053;BMP280;68451;49.510;6.026;2023-07-09T04:36:52;98433.22;;;18.87
79053;BMP280;68451;49.510;6.026;2023-07-09T04:39:18;98401.19;;;18.73
79053;BMP280;68451;49.510;6.026;2023-07-09T04:41:43;98407.00;;;18.85
79053;BMP280;68451;49.510;6.026;2023-07-09T04:44:09;98241.16;;;17.89
79053;BMP280;68451;49.510;6.026;2023-07-09T04:46:34;98385.84;;;18.95
79053;BMP280;68451;49.510;6.026;2023-07-09T04:48:59;98429.47;;;19.33
79053;BMP280;68451;49.510;6.026;2023-07-09T04:51:26;98270.28;;;18.55
79053;BMP280;68451;49.510;6.026;2023-07-09T04:53:51;98405.34;;;19.65
79053;BMP280;68451;49.510;6.026;2023-07-09T04:56:17;98400.28;;;19.84
79053;BMP280;68451;49.510;6.026;2023-07-09T04:58:43;98441.97;;;20.32
79053;BMP280;68451;49.510;6.026;2023-07-09T05:01:09;98429.72;;;20.41
79053;BMP280;68451;49.510;6.026;2023-07-09T05:03:34;98420.09;;;20.55
79053;BMP280;68451;49.510;6.026;2023-07-09T05:06:00;98407.41;;;20.47
79053;BMP280;68451;49.510;6.026;2023-07-09T05:08:25;98426.94;;;20.67
79053;BMP280;68451;49.510;6.026;2023-07-09T05:10:52;98420.31;;;20.64
79053;BMP280;68451;49.510;6.026;2023-07-09T05:13:18;98389.66;;;20.82
79053;BMP280;68451;49.510;6.026;2023-07-09T05:15:45;98413.84;;;21.43
79053;BMP280;68451;49.510;6.026;2023-07-09T05:18:15;98396.28;;;21.71
79053;BMP280;68451;49.510;6.026;2023-07-09T05:20:42;98429.41;;;22.26
79053;BMP280;68451;49.510;6.026;2023-07-09T05:23:09;98438.13;;;22.69
79053;BMP280;68451;49.510;6.026;2023-07-09T05:25:35;98363.91;;;22.49
79053;BMP280;68451;49.510;6.026;2023-07-09T05:28:00;98406.09;;;23.25
79053;BMP280;68451;49.510;6.026;2023-07-09T05:30:26;98420.72;;;23.87
79053;BMP280;68451;49.510;6.026;2023-07-09T05:32:51;98441.19;;;24.55
79053;BMP280;68451;49.510;6.026;2023-07-09T05:35:19;98389.59;;;24.82
79053;BMP280;68451;49.510;6.026;2023-07-09T05:37:44;98399.47;;;25.57
79053;BMP280;68451;49.510;6.026;2023-07-09T05:40:09;98320.53;;;25.68
79053;BMP280;68451;49.510;6.026;2023-07-09T05:42:35;98427.13;;;26.91
79053;BMP280;68451;49.510;6.026;2023-07-09T05:45:00;98429.78;;;27.08
79053;BMP280;68451;49.510;6.026;2023-07-09T05:47:26;98383.13;;;27.01
79053;BMP280;68451;49.510;6.026;2023-07-09T05:49:52;98426.53;;;27.58
79053;BMP280;68451;49.510;6.026;2023-07-09T05:52:19;98419.25;;;27.96
79053;BMP280;68451;49.510;6.026;2023-07-09T05:54:45;98317.00;;;27.89
79053;BMP280;68451;49.510;6.026;2023-07-09T05:57:11;98399.97;;;28.74
79053;BMP280;68451;49.510;6.026;2023-07-09T05:59:37;98411.53;;;29.19
79053;BMP280;68451;49.510;6.026;2023-07-09T06:02:03;98406.78;;;29.37
79053;BMP280;68451;49.510;6.026;2023-07-09T06:04:29;98382.13;;;29.02
79053;BMP280;68451;49.510;6.026;2023-07-09T06:06:56;98269.16;;;28.66
79053;BMP280;68451;49.510;6.026;2023-07-09T06:09:22;98415.25;;;30.08
79053;BMP280;68451;49.510;6.026;2023-07-09T06:11:48;98313.97;;;29.92
79053;BMP280;68451;49.510;6.026;2023-07-09T06:14:13;98277.09;;;30.20
79053;BMP280;68451;49.510;6.026;2023-07-09T06:16:39;98396.13;;;31.21
79053;BMP280;68451;49.510;6.026;2023-07-09T06:19:04;98426.34;;;31.89
79053;BMP280;68451;49.510;6.026;2023-07-09T06:21:30;98400.94;;;32.25
79053;BMP280;68451;49.510;6.026;2023-07-09T06:23:55;98379.69;;;32.43
79053;BMP280;68451;49.510;6.026;2023-07-09T06:26:21;98393.09;;;32.74
79053;BMP280;68451;49.510;6.026;2023-07-09T06:28:46;98408.69;;;33.04
79053;BMP280;68451;49.510;6.026;2023-07-09T06:31:12;98412.19;;;33.23
79053;BMP280;68451;49.510;6.026;2023-07-09T06:33:37;98405.41;;;33.33
79053;BMP280;68451;49.510;6.026;2023-07-09T06:36:04;98389.28;;;33.40
79053;BMP280;68451;49.510;6.026;2023-07-09T06:38:30;98385.50;;;33.67
79053;BMP280;68451;49.510;6.026;2023-07-09T06:40:57;98398.25;;;33.93
79053;BMP280;68451;49.510;6.026;2023-07-09T06:43:22;98333.50;;;33.85
79053;BMP280;68451;49.510;6.026;2023-07-09T06:45:53;98417.34;;;34.90
79053;BMP280;68451;49.510;6.026;2023-07-09T06:48:18;98402.63;;;34.57
79053;BMP280;68451;49.510;6.026;2023-07-09T06:50:45;98410.63;;;34.77
79053;BMP280;68451;49.510;6.026;2023-07-09T06:53:10;98381.34;;;34.30
79053;BMP280;68451;49.510;6.026;2023-07-09T06:55:36;98394.63;;;34.38
79053;BMP280;68451;49.510;6.026;2023-07-09T06:58:01;98387.72;;;34.41
79053;BMP280;68451;49.510;6.026;2023-07-09T07:00:27;98389.63;;;34.10
79053;BMP280;68451;49.510;6.026;2023-07-09T07:02:52;98421.56;;;34.54
79053;BMP280;68451;49.510;6.026;2023-07-09T07:05:18;98396.38;;;34.53
79053;BMP280;68451;49.510;6.026;2023-07-09T07:07:44;98335.94;;;34.20
79053;BMP280;68451;49.510;6.026;2023-07-09T07:10:10;98358.63;;;34.11
79053;BMP280;68451;49.510;6.026;2023-07-09T07:12:47;98414.50;;;34.20
79053;BMP280;68451;49.510;6.026;2023-07-09T07:15:14;98349.31;;;33.79
79053;BMP280;68451;49.510;6.026;2023-07-09T07:17:40;98408.00;;;33.98
79053;BMP280;68451;49.510;6.026;2023-07-09T07:20:07;98324.72;;;33.65
79053;BMP280;68451;49.510;6.026;2023-07-09T07:22:33;98390.91;;;34.50
79053;BMP280;68451;49.510;6.026;2023-07-09T07:24:58;98416.28;;;34.98
79053;BMP280;68451;49.510;6.026;2023-07-09T07:27:24;98419.78;;;35.35
79053;BMP280;68451;49.510;6.026;2023-07-09T07:29:49;98387.69;;;35.44
79053;BMP280;68451;49.510;6.026;2023-07-09T07:32:15;98411.69;;;35.90
79053;BMP280;68451;49.510;6.026;2023-07-09T07:34:40;98386.97;;;36.09
79053;BMP280;68451;49.510;6.026;2023-07-09T07:37:06;98372.00;;;36.44
79053;BMP280;68451;49.510;6.026;2023-07-09T07:39:31;98410.47;;;36.46
79053;BMP280;68451;49.510;6.026;2023-07-09T07:41:57;98363.03;;;36.32
79053;BMP280;68451;49.510;6.026;2023-07-09T07:44:23;98431.31;;;37.07
79053;BMP280;68451;49.510;6.026;2023-07-09T07:46:49;98423.59;;;37.44
79053;BMP280;68451;49.510;6.026;2023-07-09T07:49:14;98427.47;;;37.47
79053;BMP280;68451;49.510;6.026;2023-07-09T07:51:40;98420.88;;;37.41
79053;BMP280;68451;49.510;6.026;2023-07-09T07:54:06;98405.69;;;37.43
79053;BMP280;68451;49.510;6.026;2023-07-09T07:56:36;98404.94;;;37.50
79053;BMP280;68451;49.510;6.026;2023-07-09T07:59:03;98391.25;;;37.00
79053;BMP280;68451;49.510;6.026;2023-07-09T08:01:28;98338.16;;;36.34
79053;BMP280;68451;49.510;6.026;2023-07-09T08:03:54;98338.94;;;36.34
79053;BMP280;68451;49.510;6.026;2023-07-09T08:06:21;98347.50;;;36.33
79053;BMP280;68451;49.510;6.026;2023-07-09T08:08:46;98408.91;;;36.41
79053;BMP280;68451;49.510;6.026;2023-07-09T08:11:12;98401.59;;;35.87
79053;BMP280;68451;49.510;6.026;2023-07-09T08:13:38;98355.91;;;35.48
79053;BMP280;68451;49.510;6.026;2023-07-09T08:16:05;98386.91;;;35.44
79053;BMP280;68451;49.510;6.026;2023-07-09T08:18:31;98418.44;;;35.63
79053;BMP280;68451;49.510;6.026;2023-07-09T08:20:58;98404.09;;;35.62
79053;BMP280;68451;49.510;6.026;2023-07-09T08:23:24;98374.66;;;35.64
79053;BMP280;68451;49.510;6.026;2023-07-09T08:25:57;98364.31;;;35.84
79053;BMP280;68451;49.510;6.026;2023-07-09T08:28:23;98325.50;;;35.80
79053;BMP280;68451;49.510;6.026;2023-07-09T08:30:51;98377.25;;;36.05
79053;BMP280;68451;49.510;6.026;2023-07-09T08:33:17;98367.13;;;35.98
79053;BMP280;68451;49.510;6.026;2023-07-09T08:35:43;98382.41;;;36.20
79053;BMP280;68451;49.510;6.026;2023-07-09T08:38:08;98324.03;;;36.04
79053;BMP280;68451;49.510;6.026;2023-07-09T08:40:39;98364.25;;;36.53
79053;BMP280;68451;49.510;6.026;2023-07-09T08:43:20;98370.59;;;36.85
79053;BMP280;68451;49.510;6.026;2023-07-09T08:45:56;98250.84;;;35.60
79053;BMP280;68451;49.510;6.026;2023-07-09T08:48:31;98271.31;;;35.43
79053;BMP280;68451;49.510;6.026;2023-07-09T08:51:04;98360.56;;;36.06
79053;BMP280;68451;49.510;6.026;2023-07-09T08:53:37;98344.16;;;35.88
79053;BMP280;68451;49.510;6.026;2023-07-09T08:56:08;98378.03;;;36.09
79053;BMP280;68451;49.510;6.026;2023-07-09T08:58:34;98364.81;;;36.07
79053;BMP280;68451;49.510;6.026;2023-07-09T09:01:04;98359.00;;;36.09
79053;BMP280;68451;49.510;6.026;2023-07-09T09:03:48;98348.84;;;35.91
79053;BMP280;68451;49.510;6.026;2023-07-09T09:06:17;98250.91;;;35.12
79053;BMP280;68451;49.510;6.026;2023-07-09T09:09:15;98372.50;;;35.40
79053;BMP280;68451;49.510;6.026;2023-07-09T09:11:53;98266.53;;;34.41
79053;BMP280;68451;49.510;6.026;2023-07-09T09:14:29;98272.50;;;34.24
79053;BMP280;68451;49.510;6.026;2023-07-09T09:16:56;98321.78;;;34.33
79053;BMP280;68451;49.510;6.026;2023-07-09T09:19:27;98340.38;;;34.35
79053;BMP280;68451;49.510;6.026;2023-07-09T09:21:58;98338.50;;;34.09
79053;BMP280;68451;49.510;6.026;2023-07-09T09:24:30;98338.50;;;34.09
79053;BMP280;68451;49.510;6.026;2023-07-09T09:26:58;98215.34;;;33.43
79053;BMP280;68451;49.510;6.026;2023-07-09T09:29:25;98336.81;;;34.27
79053;BMP280;68451;49.510;6.026;2023-07-09T09:31:54;98252.16;;;33.74
79053;BMP280;68451;49.510;6.026;2023-07-09T09:34:26;98233.34;;;33.58
79053;BMP280;68451;49.510;6.026;2023-07-09T09:36:53;98339.25;;;34.69
79053;BMP280;68451;49.510;6.026;2023-07-09T09:39:20;98356.66;;;35.05
79053;BMP280;68451;49.510;6.026;2023-07-09T09:41:46;98331.16;;;35.13
79053;BMP280;68451;49.510;6.026;2023-07-09T09:44:18;98348.88;;;35.44
79053;BMP280;68451;49.510;6.026;2023-07-09T09:46:44;98307.88;;;35.60
79053;BMP280;68451;49.510;6.026;2023-07-09T09:49:10;98304.66;;;35.40
79053;BMP280;68451;49.510;6.026;2023-07-09T09:51:39;98334.91;;;35.42
79053;BMP280;68451;49.510;6.026;2023-07-09T09:54:14;98315.63;;;35.10
79053;BMP280;68451;49.510;6.026;2023-07-09T09:56:42;98215.66;;;34.28
79053;BMP280;68451;49.510;6.026;2023-07-09T09:59:27;98330.31;;;35.09
79053;BMP280;68451;49.510;6.026;2023-07-09T10:02:01;98325.59;;;34.95
79053;BMP280;68451;49.510;6.026;2023-07-09T10:04:27;98368.72;;;35.11
79053;BMP280;68451;49.510;6.026;2023-07-09T10:06:59;98342.53;;;34.52
79053;BMP280;68451;49.510;6.026;2023-07-09T10:09:47;98325.94;;;34.24
79053;BMP280;68451;49.510;6.026;2023-07-09T10:15:28;98379.03;;;34.28
79053;BMP280;68451;49.510;6.026;2023-07-09T10:18:09;98336.72;;;33.94
79053;BMP280;68451;49.510;6.026;2023-07-09T10:21:03;98155.09;;;32.67
79053;BMP280;68451;49.510;6.026;2023-07-09T10:23:55;98240.94;;;33.49
79053;BMP280;68451;49.510;6.026;2023-07-09T10:26:31;98220.63;;;33.62
79053;BMP280;68451;49.510;6.026;2023-07-09T10:32:22;98358.28;;;34.43
79053;BMP280;68451;49.510;6.026;2023-07-09T10:34:55;98285.06;;;34.06
79053;BMP280;68451;49.510;6.026;2023-07-09T10:37:49;98366.38;;;34.39
79053;BMP280;68451;49.510;6.026;2023-07-09T10:40:24;98209.16;;;33.43
79053;BMP280;68451;49.510;6.026;2023-07-09T10:42:56;98252.03;;;33.67
79053;BMP280;68451;49.510;6.026;2023-07-09T10:45:33;98354.19;;;34.56
79053;BMP280;68451;49.510;6.026;2023-07-09T10:48:10;98295.91;;;34.39
79053;BMP280;68451;49.510;6.026;2023-07-09T10:50:41;98352.34;;;34.64
79053;BMP280;68451;49.510;6.026;2023-07-09T10:53:21;98300.19;;;34.40
79053;BMP280;68451;49.510;6.026;2023-07-09T10:55:56;98334.84;;;34.57
79053;BMP280;68451;49.510;6.026;2023-07-09T10:58:53;98302.91;;;34.40
79053;BMP280;68451;49.510;6.026;2023-07-09T11:01:28;98265.22;;;34.28
79053;BMP280;68451;49.510;6.026;2023-07-09T11:04:02;98199.34;;;34.24
79053;BMP280;68451;49.510;6.026;2023-07-09T11:06:39;98307.88;;;35.12
79053;BMP280;68451;49.510;6.026;2023-07-09T11:09:25;98328.78;;;35.56
79053;BMP280;68451;49.510;6.026;2023-07-09T11:11:55;98322.03;;;35.86
79053;BMP280;68451;49.510;6.026;2023-07-09T11:14:27;98305.91;;;35.53
79053;BMP280;68451;49.510;6.026;2023-07-09T11:16:57;98296.09;;;35.41
79053;BMP280;68451;49.510;6.026;2023-07-09T11:19:24;98314.38;;;35.44
79053;BMP280;68451;49.510;6.026;2023-07-09T11:24:31;98301.66;;;35.08
79053;BMP280;68451;49.510;6.026;2023-07-09T11:26:57;98258.03;;;34.83
79053;BMP280;68451;49.510;6.026;2023-07-09T11:29:25;98292.59;;;34.93
79053;BMP280;68451;49.510;6.026;2023-07-09T11:31:50;98278.31;;;35.00
79053;BMP280;68451;49.510;6.026;2023-07-09T11:34:19;98288.09;;;35.08
79053;BMP280;68451;49.510;6.026;2023-07-09T11:36:49;98271.72;;;34.97
79053;BMP280;68451;49.510;6.026;2023-07-09T11:39:31;98284.31;;;34.76
79053;BMP280;68451;49.510;6.026;2023-07-09T11:41:58;98285.00;;;34.69
79053;BMP280;68451;49.510;6.026;2023-07-09T11:44:31;98276.66;;;34.85
79053;BMP280;68451;49.510;6.026;2023-07-09T11:49:57;98168.13;;;34.00
79053;BMP280;68451;49.510;6.026;2023-07-09T11:52:36;98244.03;;;34.37
79053;BMP280;68451;49.510;6.026;2023-07-09T11:58:02;98247.41;;;34.27
79053;BMP280;68451;49.510;6.026;2023-07-09T12:00:36;98256.47;;;34.42
79053;BMP280;68451;49.510;6.026;2023-07-09T12:03:03;98176.53;;;33.92
79053;BMP280;68451;49.510;6.026;2023-07-09T12:05:29;98282.72;;;34.71
79053;BMP280;68451;49.510;6.026;2023-07-09T12:07:58;98232.91;;;34.49
79053;BMP280;68451;49.510;6.026;2023-07-09T12:10:28;98307.13;;;34.71
79053;BMP280;68451;49.510;6.026;2023-07-09T12:12:55;98310.50;;;34.65
79053;BMP280;68451;49.510;6.026;2023-07-09T12:15:24;98318.34;;;34.70
79053;BMP280;68451;49.510;6.026;2023-07-09T12:17:56;98327.41;;;34.84
79053;BMP280;68451;49.510;6.026;2023-07-09T12:20:22;98309.09;;;34.78
79053;BMP280;68451;49.510;6.026;2023-07-09T12:22:49;98301.81;;;34.82
79053;BMP280;68451;49.510;6.026;2023-07-09T12:25:21;98304.16;;;34.87
79053;BMP280;68451;49.510;6.026;2023-07-09T12:27:47;98318.59;;;34.94
79053;BMP280;68451;49.510;6.026;2023-07-09T12:30:13;98299.91;;;34.86
79053;BMP280;68451;49.510;6.026;2023-07-09T12:32:46;98221.88;;;34.32
79053;BMP280;68451;49.510;6.026;2023-07-09T12:35:13;98300.09;;;34.67
79053;BMP280;68451;49.510;6.026;2023-07-09T12:37:42;98299.19;;;34.22
79053;BMP280;68451;49.510;6.026;2023-07-09T12:40:14;98278.53;;;33.81
79053;BMP280;68451;49.510;6.026;2023-07-09T12:42:42;98245.47;;;33.42
79053;BMP280;68451;49.510;6.026;2023-07-09T12:45:18;98183.28;;;32.93
79053;BMP280;68451;49.510;6.026;2023-07-09T12:47:46;98309.44;;;33.53
79053;BMP280;68451;49.510;6.026;2023-07-09T12:50:22;98347.13;;;33.39
79053;BMP280;68451;49.510;6.026;2023-07-09T12:52:55;98378.88;;;33.19
79053;BMP280;68451;49.510;6.026;2023-07-09T12:55:25;98401.97;;;32.94
79053;BMP280;68451;49.510;6.026;2023-07-09T12:57:59;98441.09;;;32.62
79053;BMP280;68451;49.510;6.026;2023-07-09T13:00:30;98434.84;;;32.07
79053;BMP280;68451;49.510;6.026;2023-07-09T13:02:58;98358.63;;;30.33
79053;BMP280;68451;49.510;6.026;2023-07-09T13:05:25;98400.09;;;29.67
79053;BMP280;68451;49.510;6.026;2023-07-09T13:07:54;98440.19;;;29.15
79053;BMP280;68451;49.510;6.026;2023-07-09T13:10:24;98522.22;;;28.80
79053;BMP280;68451;49.510;6.026;2023-07-09T13:12:54;98539.38;;;28.37
79053;BMP280;68451;49.510;6.026;2023-07-09T13:15:24;98541.13;;;27.87
79053;BMP280;68451;49.510;6.026;2023-07-09T13:17:57;98495.03;;;27.30
79053;BMP280;68451;49.510;6.026;2023-07-09T13:20:23;98379.84;;;26.26
79053;BMP280;68451;49.510;6.026;2023-07-09T13:22:48;98417.75;;;26.20
79053;BMP280;68451;49.510;6.026;2023-07-09T13:25:14;98531.38;;;26.53
79053;BMP280;68451;49.510;6.026;2023-07-09T13:27:39;98468.13;;;25.78
79053;BMP280;68451;49.510;6.026;2023-07-09T13:30:05;98499.31;;;25.83
79053;BMP280;68451;49.510;6.026;2023-07-09T13:32:31;98509.31;;;25.69
79053;BMP280;68451;49.510;6.026;2023-07-09T13:34:56;98486.41;;;25.32
79053;BMP280;68451;49.510;6.026;2023-07-09T13:37:22;98500.56;;;25.32
79053;BMP280;68451;49.510;6.026;2023-07-09T13:39:48;98506.22;;;25.31
79053;BMP280;68451;49.510;6.026;2023-07-09T13:42:16;98525.34;;;25.24
79053;BMP280;68451;49.510;6.026;2023-07-09T13:44:44;98494.50;;;24.82
79053;BMP280;68451;49.510;6.026;2023-07-09T13:47:14;98503.13;;;24.79
79053;BMP280;68451;49.510;6.026;2023-07-09T13:49:43;98269.56;;;23.33
79053;BMP280;68451;49.510;6.026;2023-07-09T13:52:16;98505.88;;;24.74
79053;BMP280;68451;49.510;6.026;2023-07-09T13:54:42;98491.66;;;24.65
79053;BMP280;68451;49.510;6.026;2023-07-09T13:57:14;98370.53;;;23.89
79053;BMP280;68451;49.510;6.026;2023-07-09T13:59:40;98451.03;;;24.32
79053;BMP280;68451;49.510;6.026;2023-07-09T14:02:29;98261.59;;;23.47
79053;BMP280;68451;49.510;6.026;2023-07-09T14:04:58;98375.28;;;24.42
79053;BMP280;68451;49.510;6.026;2023-07-09T14:07:30;98366.53;;;24.28
79053;BMP280;68451;49.510;6.026;2023-07-09T14:09:57;98393.50;;;24.26
79053;BMP280;68451;49.510;6.026;2023-07-09T14:12:23;98389.25;;;24.12
79053;BMP280;68451;49.510;6.026;2023-07-09T14:14:50;98403.22;;;24.22
79053;BMP280;68451;49.510;6.026;2023-07-09T14:17:16;98400.72;;;24.26
79053;BMP280;68451;49.510;6.026;2023-07-09T14:19:42;98394.44;;;24.44
79053;BMP280;68451;49.510;6.026;2023-07-09T14:22:28;98404.59;;;24.78
79053;BMP280;68451;49.510;6.026;2023-07-09T14:24:57;98361.28;;;24.59
79053;BMP280;68451;49.510;6.026;2023-07-09T14:27:22;98407.38;;;25.09
79053;BMP280;68451;49.510;6.026;2023-07-09T14:29:48;98374.78;;;24.98
79053;BMP280;68451;49.510;6.026;2023-07-09T14:32:34;98260.22;;;24.21
79053;BMP280;68451;49.510;6.026;2023-07-09T14:35:12;98158.88;;;23.63